createdAt,value
2022-12-13T00:01:50.210Z,14.43
2022-12-13T00:04:19.426Z,14.38
2022-12-13T00:06:47.280Z,14.40
2022-12-13T00:09:17.076Z,15.07
2022-12-13T00:11:44.955Z,14.60
2022-12-13T00:14:14.169Z,14.85
2022-12-13T00:16:45.716Z,14.68
2022-12-13T00:19:13.647Z,15.02
2022-12-13T00:21:41.293Z,15.88
2022-12-13T00:24:09.147Z,15.27
2022-12-13T00:26:36.634Z,15.57
2022-12-13T00:29:06.633Z,15.75
2022-12-13T00:34:22.326Z,16.67
2022-12-13T00:36:49.878Z,16.67
2022-12-13T00:39:19.104Z,16.60
2022-12-13T00:41:47.212Z,15.73
2022-12-13T00:44:14.825Z,16.50
2022-12-13T00:46:42.842Z,15.90
2022-12-13T00:49:11.321Z,16.13
2022-12-13T00:51:39.345Z,16.75
2022-12-13T00:54:06.919Z,16.90
2022-12-13T00:56:36.903Z,16.83
2022-12-13T00:59:04.857Z,17.58
2022-12-13T01:01:36.545Z,16.98
2022-12-13T01:04:05.396Z,18.40
2022-12-13T01:06:46.133Z,17.77
2022-12-13T01:09:22.713Z,17.02
2022-12-13T01:11:50.400Z,17.15
2022-12-13T01:14:18.986Z,18.13
2022-12-13T01:16:46.561Z,18.65
2022-12-13T01:19:14.081Z,18.67
2022-12-13T01:21:41.572Z,17.98
2022-12-13T01:24:09.057Z,18.13
2022-12-13T01:26:36.551Z,18.10
2022-12-13T01:29:05.690Z,18.95
2022-12-13T01:31:33.760Z,18.42
2022-12-13T01:34:01.169Z,18.80
2022-12-13T01:36:28.711Z,18.67
2022-12-13T01:38:58.559Z,18.95
2022-12-13T01:41:28.826Z,19.25
2022-12-13T01:44:21.605Z,19.38
2022-12-13T01:46:49.021Z,20.25
2022-12-13T01:49:19.310Z,19.55
2022-12-13T01:51:56.176Z,19.70
2022-12-13T01:54:33.863Z,19.00
2022-12-13T01:57:05.332Z,19.80
2022-12-13T01:59:36.466Z,20.27
2022-12-13T02:02:06.035Z,19.48
2022-12-13T02:05:12.602Z,21.10
2022-12-13T02:07:43.305Z,19.92
2022-12-13T02:10:11.216Z,20.23
2022-12-13T02:12:40.374Z,21.58
2022-12-13T02:15:14.844Z,21.05
2022-12-13T02:18:01.441Z,19.75
2022-12-13T02:21:00.023Z,20.85
2022-12-13T02:24:09.004Z,18.90
2022-12-13T02:26:59.538Z,20.85
2022-12-13T02:30:01.755Z,21.20
2022-12-13T02:32:45.781Z,20.35
2022-12-13T02:35:28.433Z,19.95
2022-12-13T02:38:25.109Z,21.00
2022-12-13T02:41:27.129Z,20.65
2022-12-13T02:44:22.466Z,20.83
2022-12-13T02:46:59.225Z,20.50
2022-12-13T02:49:31.567Z,21.33
2022-12-13T02:52:01.479Z,20.98
2022-12-13T02:54:30.258Z,20.70
2022-12-13T02:56:59.502Z,20.33
2022-12-13T02:59:32.236Z,20.25
2022-12-13T03:02:31.045Z,21.35
2022-12-13T03:05:56.804Z,21.08
2022-12-13T03:08:31.744Z,20.17
2022-12-13T03:11:13.045Z,20.08
2022-12-13T03:14:09.648Z,20.92
2022-12-13T03:16:44.008Z,20.17
2022-12-13T03:19:13.675Z,18.92
2022-12-13T03:21:48.347Z,20.75
2022-12-13T03:24:21.479Z,19.83
2022-12-13T03:26:51.076Z,20.17
2022-12-13T03:29:23.659Z,19.42
2022-12-13T03:31:53.461Z,19.67
2022-12-13T03:34:22.199Z,18.90
2022-12-13T03:36:51.867Z,18.90
2022-12-13T03:39:20.439Z,19.17
2022-12-13T03:41:48.580Z,18.33
2022-12-13T03:44:16.054Z,18.63
2022-12-13T03:46:43.524Z,18.13
2022-12-13T03:49:16.711Z,19.23
2022-12-13T03:51:45.379Z,18.08
2022-12-13T03:54:12.967Z,18.15
2022-12-13T03:56:40.383Z,18.60
2022-12-13T03:59:07.940Z,17.92
2022-12-13T04:01:35.478Z,17.38
2022-12-13T04:04:03.032Z,17.33
2022-12-13T04:06:33.063Z,16.77
2022-12-13T04:09:01.143Z,16.45
2022-12-13T04:11:47.297Z,17.30
2022-12-13T04:14:22.353Z,17.00
2022-12-13T04:16:52.027Z,16.58
2022-12-13T04:19:23.099Z,16.83
2022-12-13T04:21:52.132Z,16.90
2022-12-13T04:24:19.444Z,15.82
2022-12-13T04:26:46.933Z,16.42
2022-12-13T04:29:15.272Z,16.17
2022-12-13T04:31:42.833Z,16.17
2022-12-13T04:34:10.428Z,16.58
2022-12-13T04:36:37.850Z,15.68
2022-12-13T04:39:22.280Z,15.13
2022-12-13T04:41:52.748Z,15.45
2022-12-13T04:44:27.681Z,14.85
2022-12-13T04:47:01.062Z,15.07
2022-12-13T04:49:30.290Z,15.32
2022-12-13T04:52:01.139Z,15.52
2022-12-13T04:54:36.357Z,13.93
2022-12-13T04:57:08.325Z,13.90
2022-12-13T04:59:36.995Z,13.23
2022-12-13T05:02:06.171Z,14.73
2022-12-13T05:04:33.760Z,14.32
2022-12-13T05:07:02.453Z,13.73
2022-12-13T05:09:37.414Z,13.25
2022-12-13T05:12:22.697Z,13.88
2022-12-13T05:14:51.929Z,13.98
2022-12-13T05:17:19.743Z,13.02
2022-12-13T05:19:47.269Z,13.98
2022-12-13T05:22:20.913Z,13.15
2022-12-13T05:24:49.501Z,12.90
2022-12-13T05:27:24.444Z,13.02
2022-12-13T05:30:03.997Z,13.18
2022-12-13T05:32:42.558Z,13.00
2022-12-13T05:35:23.144Z,13.43
2022-12-13T05:37:53.815Z,12.23
2022-12-13T05:40:23.500Z,12.57
2022-12-13T05:42:50.815Z,12.85
2022-12-13T05:45:19.632Z,12.50
2022-12-13T05:47:47.252Z,12.48
2022-12-13T05:50:16.420Z,12.13
2022-12-13T05:52:45.838Z,11.65
2022-12-13T05:55:14.312Z,12.68
2022-12-13T05:57:42.183Z,11.90
2022-12-13T06:00:29.048Z,11.70
2022-12-13T06:03:01.105Z,11.68
2022-12-13T06:05:30.466Z,11.65
2022-12-13T06:07:58.544Z,11.32
2022-12-13T06:10:34.671Z,11.57
2022-12-13T06:13:21.948Z,13.55
2022-12-13T06:15:51.977Z,12.93
2022-12-13T06:18:33.400Z,12.48
2022-12-13T06:21:04.615Z,12.43
2022-12-13T06:23:32.421Z,12.65
2022-12-13T06:26:03.118Z,12.05
2022-12-13T06:28:30.663Z,12.05
2022-12-13T06:31:01.237Z,12.38
2022-12-13T06:33:29.771Z,12.50
2022-12-13T06:35:58.031Z,11.65
2022-12-13T06:38:31.453Z,12.35
2022-12-13T06:41:14.511Z,11.38
2022-12-13T06:43:43.452Z,11.82
2022-12-13T06:46:11.129Z,12.27
2022-12-13T06:48:40.629Z,11.80
2022-12-13T06:51:09.975Z,11.95
2022-12-13T06:53:39.256Z,12.10
2022-12-13T06:56:10.084Z,11.75
2022-12-13T06:58:37.750Z,11.48
2022-12-13T07:01:14.913Z,12.48
2022-12-13T07:03:54.364Z,11.40
2022-12-13T07:06:23.286Z,11.05
2022-12-13T07:08:56.389Z,10.52
2022-12-13T07:11:33.311Z,11.82
2022-12-13T07:14:02.024Z,12.05
2022-12-13T07:16:29.486Z,12.63
2022-12-13T07:19:01.014Z,12.02
2022-12-13T07:21:30.518Z,12.27
2022-12-13T07:23:58.328Z,12.77
2022-12-13T07:26:25.797Z,12.35
2022-12-13T07:28:55.591Z,13.23
2022-12-13T07:31:24.507Z,12.93
2022-12-13T07:33:52.560Z,13.27
2022-12-13T07:36:22.269Z,12.45
2022-12-13T07:38:55.091Z,12.82
2022-12-13T07:41:26.551Z,12.73
2022-12-13T07:43:56.233Z,13.45
2022-12-13T07:46:33.393Z,12.55
2022-12-13T07:49:03.039Z,13.35
2022-12-13T07:51:32.781Z,13.45
2022-12-13T07:54:00.918Z,13.10
2022-12-13T07:56:35.749Z,14.77
2022-12-13T07:59:03.798Z,13.60
2022-12-13T08:01:35.067Z,14.38
2022-12-13T08:04:05.022Z,14.48
2022-12-13T08:06:37.464Z,13.68
2022-12-13T08:09:05.800Z,13.45
2022-12-13T08:11:33.779Z,13.60
2022-12-13T08:14:01.363Z,13.95
2022-12-13T08:16:30.604Z,13.70
2022-12-13T08:19:03.216Z,14.70
2022-12-13T08:21:57.814Z,13.48
2022-12-13T08:24:28.594Z,13.63
2022-12-13T08:27:01.580Z,12.85
2022-12-13T08:29:35.826Z,13.45
2022-12-13T08:32:10.373Z,12.65
2022-12-13T08:34:38.192Z,12.95
2022-12-13T08:37:06.139Z,12.68
2022-12-13T08:39:36.601Z,12.75
2022-12-13T08:42:16.099Z,12.52
2022-12-13T08:44:47.328Z,12.50
2022-12-13T08:47:24.343Z,11.90
2022-12-13T08:50:02.251Z,11.68
2022-12-13T08:52:40.688Z,11.73
2022-12-13T08:55:12.297Z,11.73
2022-12-13T08:57:40.947Z,11.77
2022-12-13T09:00:11.727Z,10.30
2022-12-13T09:02:39.407Z,11.45
2022-12-13T09:05:08.266Z,11.05
2022-12-13T09:07:39.497Z,11.18
2022-12-13T09:10:26.573Z,10.73
2022-12-13T09:13:01.347Z,11.00
2022-12-13T09:15:34.397Z,10.98
2022-12-13T09:18:05.196Z,10.52
2022-12-13T09:20:40.766Z,10.80
2022-12-13T09:23:14.010Z,9.87
2022-12-13T09:26:04.879Z,9.93
2022-12-13T09:28:35.261Z,10.30
2022-12-13T09:31:14.042Z,9.73
2022-12-13T09:33:42.432Z,9.40
2022-12-13T09:36:16.307Z,9.00
2022-12-13T09:38:43.826Z,10.07
2022-12-13T09:41:29.937Z,9.25
2022-12-13T09:44:05.726Z,9.60
2022-12-13T09:46:44.396Z,8.98
2022-12-13T09:49:35.884Z,9.70
2022-12-13T09:52:11.581Z,8.77
2022-12-13T09:54:48.186Z,8.63
2022-12-13T10:00:10.990Z,8.48
2022-12-13T10:02:51.797Z,8.25
2022-12-13T10:05:40.392Z,8.38
2022-12-13T10:08:32.157Z,8.43
2022-12-13T10:10:59.456Z,8.60
2022-12-13T10:13:40.343Z,8.02
2022-12-13T10:16:37.107Z,8.60
2022-12-13T10:19:27.977Z,8.13
2022-12-13T10:22:01.523Z,8.13
2022-12-13T10:24:50.954Z,7.32
2022-12-13T10:27:33.581Z,7.35
2022-12-13T10:30:00.884Z,7.20
2022-12-13T10:32:28.754Z,7.40
2022-12-13T10:34:58.505Z,7.50
2022-12-13T10:37:32.321Z,7.38
2022-12-13T10:39:59.682Z,7.65
2022-12-13T10:42:33.638Z,7.05
2022-12-13T10:45:23.552Z,7.07
2022-12-13T10:47:51.666Z,7.55
2022-12-13T10:50:26.531Z,7.00
2022-12-13T10:52:55.227Z,6.53
2022-12-13T10:55:38.140Z,7.20
2022-12-13T10:58:09.527Z,7.25
2022-12-13T11:00:38.961Z,7.03
2022-12-13T11:03:07.762Z,7.03
2022-12-13T11:05:37.615Z,6.97
2022-12-13T11:08:28.104Z,8.38
2022-12-13T11:11:06.879Z,8.02
2022-12-13T11:13:38.590Z,7.63
2022-12-13T11:16:27.251Z,7.97
2022-12-13T11:18:58.184Z,8.27
2022-12-13T11:21:27.810Z,8.00
2022-12-13T11:24:01.733Z,7.65
2022-12-13T11:26:32.589Z,8.13
2022-12-13T11:29:18.742Z,8.32
2022-12-13T11:31:46.114Z,7.57
2022-12-13T11:34:22.946Z,7.45
2022-12-13T11:37:01.219Z,8.15
2022-12-13T11:39:37.107Z,7.75
2022-12-13T11:42:25.625Z,7.10
2022-12-13T11:45:03.558Z,8.02
2022-12-13T11:47:45.222Z,7.93
2022-12-13T11:50:32.964Z,7.50
2022-12-13T11:53:16.175Z,7.50
2022-12-13T11:55:54.992Z,8.10
2022-12-13T12:01:47.437Z,7.47
2022-12-13T12:04:40.097Z,7.95
2022-12-13T12:07:35.196Z,8.05
2022-12-13T12:10:17.741Z,7.68
2022-12-13T12:12:54.817Z,8.30
2022-12-13T12:15:28.914Z,8.18
2022-12-13T12:17:56.864Z,7.75
2022-12-13T12:20:52.849Z,7.75
2022-12-13T12:23:44.400Z,8.05
2022-12-13T12:26:17.273Z,7.60
2022-12-13T12:28:47.846Z,8.45
2022-12-13T12:31:50.338Z,9.88
2022-12-13T12:34:33.285Z,13.02
2022-12-13T12:37:25.642Z,14.02
2022-12-13T12:40:24.885Z,15.93
2022-12-13T12:43:16.106Z,16.05
2022-12-13T12:46:08.877Z,18.42
2022-12-13T12:49:14.366Z,17.08
2022-12-13T12:52:12.461Z,18.33
2022-12-13T12:54:48.188Z,18.73
2022-12-13T12:57:23.669Z,18.50
2022-12-13T13:00:12.167Z,18.48
2022-12-13T13:03:01.440Z,17.65
2022-12-13T13:05:41.705Z,18.52
2022-12-13T13:08:16.365Z,18.05
2022-12-13T13:10:50.239Z,17.63
2022-12-13T13:13:47.085Z,17.98
2022-12-13T13:16:28.999Z,17.42
2022-12-13T13:18:58.227Z,17.67
2022-12-13T13:21:31.815Z,16.70
2022-12-13T13:24:02.297Z,15.95
2022-12-13T13:26:38.105Z,16.02
2022-12-13T13:29:27.141Z,15.75
2022-12-13T13:32:11.277Z,15.32
2022-12-13T13:34:42.693Z,15.10
2022-12-13T13:37:27.941Z,15.20
2022-12-13T13:40:30.574Z,15.27
2022-12-13T13:43:11.026Z,15.55
2022-12-13T13:45:57.228Z,14.85
2022-12-13T13:48:24.670Z,14.60
2022-12-13T13:50:52.360Z,14.68
2022-12-13T13:53:49.305Z,13.73
2022-12-13T13:56:31.934Z,13.10
2022-12-13T13:59:02.976Z,14.07
2022-12-13T14:01:45.570Z,13.02
2022-12-13T14:04:43.935Z,12.13
2022-12-13T14:07:26.783Z,12.05
2022-12-13T14:10:03.960Z,11.85
2022-12-13T14:12:52.553Z,12.90
2022-12-13T14:15:28.653Z,12.35
2022-12-13T14:18:21.445Z,12.32
2022-12-13T14:21:05.961Z,11.10
2022-12-13T14:24:07.378Z,11.30
2022-12-13T14:27:06.705Z,11.38
2022-12-13T14:29:40.329Z,11.38
2022-12-13T14:32:26.734Z,11.80
2022-12-13T14:34:56.726Z,11.55
2022-12-13T14:37:37.752Z,11.52
2022-12-13T14:40:34.467Z,10.85
2022-12-13T14:43:02.847Z,11.30
2022-12-13T14:45:34.227Z,10.65
2022-12-13T14:48:05.843Z,11.27
2022-12-13T14:50:36.219Z,10.73
2022-12-13T14:53:04.576Z,11.35
2022-12-13T14:55:37.379Z,10.85
2022-12-13T14:58:18.787Z,10.73
2022-12-13T15:00:46.624Z,10.00
2022-12-13T15:03:26.234Z,10.20
2022-12-13T15:06:00.838Z,10.30
2022-12-13T15:08:28.726Z,10.43
2022-12-13T15:10:59.600Z,10.55
2022-12-13T15:13:37.501Z,10.35
2022-12-13T15:16:14.134Z,10.88
2022-12-13T15:18:50.412Z,10.40
2022-12-13T15:21:25.436Z,10.80
2022-12-13T15:24:13.519Z,10.53
2022-12-13T15:26:47.774Z,11.48
2022-12-13T15:29:21.156Z,11.80
2022-12-13T15:31:49.183Z,12.07
2022-12-13T15:34:30.577Z,13.80
2022-12-13T15:37:28.569Z,13.90
2022-12-13T15:40:07.046Z,15.60
2022-12-13T15:42:38.535Z,15.82
2022-12-13T15:45:17.586Z,17.23
2022-12-13T15:47:48.983Z,16.35
2022-12-13T15:50:37.286Z,16.30
2022-12-13T15:53:27.154Z,17.55
2022-12-13T15:55:55.039Z,17.30
2022-12-13T15:58:42.729Z,17.30
2022-12-13T16:01:29.449Z,17.63
2022-12-13T16:03:57.373Z,17.17
2022-12-13T16:06:27.151Z,17.77
2022-12-13T16:09:07.850Z,17.77
2022-12-13T16:11:58.585Z,18.02
2022-12-13T16:14:48.837Z,17.48
2022-12-13T16:17:25.089Z,18.83
2022-12-13T16:19:54.027Z,18.40
2022-12-13T16:22:23.921Z,19.02
2022-12-13T16:24:52.593Z,18.25
2022-12-13T16:27:20.301Z,19.63
2022-12-13T16:29:47.932Z,20.27
2022-12-13T16:32:15.541Z,19.58
2022-12-13T16:34:43.106Z,21.52
2022-12-13T16:37:26.465Z,20.13
2022-12-13T16:39:56.156Z,21.73
2022-12-13T16:42:26.249Z,22.23
2022-12-13T16:45:32.289Z,22.85
2022-12-13T16:47:49.139Z,23.38
2022-12-13T16:50:19.599Z,23.25
2022-12-13T16:52:48.391Z,22.77
2022-12-13T16:55:16.335Z,23.63
2022-12-13T16:57:56.100Z,23.67
2022-12-13T17:00:23.725Z,24.20
2022-12-13T17:02:51.285Z,23.55
2022-12-13T17:05:18.970Z,23.95
2022-12-13T17:07:46.510Z,23.85
2022-12-13T17:10:14.333Z,24.55
2022-12-13T17:12:41.867Z,23.40
2022-12-13T17:15:10.624Z,23.67
2022-12-13T17:17:40.003Z,24.65
2022-12-13T17:20:09.546Z,24.40
2022-12-13T17:22:38.053Z,23.77
2022-12-13T17:25:06.143Z,23.17
2022-12-13T17:27:33.695Z,23.52
2022-12-13T17:30:01.438Z,22.52
2022-12-13T17:32:29.888Z,23.40
2022-12-13T17:34:57.399Z,23.45
2022-12-13T17:37:24.844Z,23.17
2022-12-13T17:39:52.258Z,22.88
2022-12-13T17:42:19.911Z,23.02
2022-12-13T17:44:47.386Z,24.20
2022-12-13T17:47:14.831Z,23.15
2022-12-13T17:49:42.348Z,23.42
2022-12-13T17:52:09.813Z,23.77
2022-12-13T17:54:37.387Z,23.10
2022-12-13T17:57:04.949Z,23.65
2022-12-13T17:59:33.636Z,23.60
2022-12-13T18:02:03.733Z,23.38
2022-12-13T18:04:31.285Z,23.60
2022-12-13T18:06:58.785Z,25.05
2022-12-13T18:09:26.223Z,23.75
2022-12-13T18:11:54.187Z,24.13
2022-12-13T18:14:21.651Z,23.80
2022-12-13T18:16:49.171Z,23.58
2022-12-13T18:19:16.657Z,24.50
2022-12-13T18:21:44.124Z,23.75
2022-12-13T18:24:12.352Z,24.00
2022-12-13T18:26:40.311Z,24.00
2022-12-13T18:29:07.742Z,23.80
2022-12-13T18:31:35.451Z,24.83
2022-12-13T18:34:03.070Z,23.38
2022-12-13T18:36:31.088Z,23.77
2022-12-13T18:38:58.582Z,23.85
2022-12-13T18:41:28.631Z,24.85
2022-12-13T18:44:00.695Z,25.85
2022-12-13T18:46:30.547Z,24.58
2022-12-13T18:48:58.644Z,25.25
2022-12-13T18:51:27.179Z,24.55
2022-12-13T18:53:56.208Z,23.30
2022-12-13T18:56:24.520Z,24.42
2022-12-13T18:58:52.428Z,24.83
2022-12-13T19:01:21.001Z,24.00
2022-12-13T19:03:49.178Z,23.63
2022-12-13T19:06:20.100Z,23.75
2022-12-13T19:08:49.535Z,24.08
2022-12-13T19:11:18.755Z,23.20
2022-12-13T19:13:47.193Z,24.00
2022-12-13T19:16:18.278Z,23.17
2022-12-13T19:18:45.909Z,22.58
2022-12-13T19:21:16.452Z,22.00
2022-12-13T19:23:45.514Z,23.80
2022-12-13T19:26:16.059Z,22.58
2022-12-13T19:28:44.304Z,22.17
2022-12-13T19:31:13.598Z,22.25
2022-12-13T19:33:42.314Z,22.58
2022-12-13T19:36:10.342Z,22.10
2022-12-13T19:38:39.284Z,22.25
2022-12-13T19:41:09.315Z,22.42
2022-12-13T19:43:37.167Z,21.30
2022-12-13T19:46:05.560Z,20.92
2022-12-13T19:48:33.405Z,20.55
2022-12-13T19:51:07.138Z,21.35
2022-12-13T19:53:35.522Z,21.27
2022-12-13T19:56:12.576Z,20.83
2022-12-13T19:58:40.204Z,20.10
2022-12-13T20:01:08.226Z,21.55
2022-12-13T20:03:38.137Z,19.83
2022-12-13T20:06:07.740Z,20.30
2022-12-13T20:08:35.478Z,19.77
2022-12-13T20:11:06.862Z,19.58
2022-12-13T20:13:35.441Z,18.27
2022-12-13T20:16:03.216Z,18.60
2022-12-13T20:18:31.628Z,18.73
2022-12-13T20:21:13.515Z,19.38
2022-12-13T20:23:49.256Z,18.25
2022-12-13T20:26:23.624Z,16.90
2022-12-13T20:28:51.734Z,17.85
2022-12-13T20:31:22.174Z,17.48
2022-12-13T20:33:55.710Z,17.40
2022-12-13T20:36:26.339Z,17.13
2022-12-13T20:38:59.758Z,16.83
2022-12-13T20:41:29.355Z,16.27
2022-12-13T20:43:58.982Z,16.50
2022-12-13T20:46:27.768Z,14.98
2022-12-13T20:48:57.788Z,16.60
2022-12-13T20:51:26.971Z,15.82
2022-12-13T20:53:55.593Z,15.93
2022-12-13T20:56:26.472Z,15.15
2022-12-13T20:58:54.397Z,15.30
2022-12-13T21:01:28.520Z,15.07
2022-12-13T21:04:00.050Z,15.32
2022-12-13T21:06:29.640Z,16.35
2022-12-13T21:09:04.617Z,19.05
2022-12-13T21:11:37.402Z,25.67
2022-12-13T21:14:09.898Z,30.42
2022-12-13T21:16:43.523Z,32.30
2022-12-13T21:19:14.350Z,31.98
2022-12-13T21:21:41.832Z,30.52
2022-12-13T21:24:11.012Z,30.33
2022-12-13T21:26:38.418Z,30.00
2022-12-13T21:29:08.353Z,28.98
2022-12-13T21:31:36.965Z,29.58
2022-12-13T21:34:05.828Z,28.45
2022-12-13T21:36:42.653Z,27.67
2022-12-13T21:39:27.680Z,26.75
2022-12-13T21:41:56.005Z,26.77
2022-12-13T21:44:23.606Z,26.80
2022-12-13T21:49:38.786Z,26.13
2022-12-13T21:52:06.265Z,25.35
2022-12-13T21:54:33.724Z,24.52
2022-12-13T21:57:19.818Z,24.92
2022-12-13T21:59:47.250Z,24.50
2022-12-13T22:02:18.039Z,26.10
2022-12-13T22:04:47.152Z,25.02
2022-12-13T22:07:25.417Z,24.75
2022-12-13T22:09:53.363Z,24.45
2022-12-13T22:12:35.429Z,24.00
2022-12-13T22:15:05.932Z,22.25
2022-12-13T22:17:36.155Z,23.15
2022-12-13T22:20:06.809Z,22.55
2022-12-13T22:22:34.739Z,22.90
2022-12-13T22:25:02.396Z,21.95
2022-12-13T22:27:29.879Z,22.30
2022-12-13T22:29:57.884Z,21.70
2022-12-13T22:32:27.309Z,21.90
2022-12-13T22:34:54.959Z,22.25
2022-12-13T22:37:23.484Z,20.08
2022-12-13T22:39:51.215Z,21.17
2022-12-13T22:42:20.171Z,20.88
2022-12-13T22:44:48.220Z,21.13
2022-12-13T22:47:15.838Z,21.02
2022-12-13T22:49:43.281Z,20.42
2022-12-13T22:52:10.928Z,20.40
2022-12-13T22:54:38.444Z,19.35
2022-12-13T22:57:07.410Z,20.05
2022-12-13T22:59:34.921Z,19.52
2022-12-13T23:02:03.834Z,18.17
2022-12-13T23:04:34.142Z,19.60
2022-12-13T23:07:01.632Z,19.17
2022-12-13T23:09:29.170Z,18.38
2022-12-13T23:12:15.528Z,20.23
2022-12-13T23:14:42.985Z,18.80
2022-12-13T23:17:10.612Z,18.95
2022-12-13T23:19:49.602Z,19.77
2022-12-13T23:22:20.700Z,18.23
2022-12-13T23:24:48.977Z,17.75
2022-12-13T23:27:17.276Z,18.95
2022-12-13T23:29:44.779Z,18.10
2022-12-13T23:32:12.751Z,18.75
2022-12-13T23:34:40.378Z,17.83
2022-12-13T23:37:08.296Z,17.55
2022-12-13T23:39:36.141Z,17.65
2022-12-13T23:42:04.049Z,18.70
2022-12-13T23:44:31.458Z,19.60
2022-12-13T23:46:58.908Z,17.52
2022-12-13T23:49:26.409Z,18.67
2022-12-13T23:51:54.223Z,18.52
2022-12-13T23:54:21.774Z,17.20
2022-12-13T23:56:49.285Z,18.10
2022-12-13T23:59:16.831Z,17.55
